首页
METAR-TAF:

METAR-TAF

机场 :

Naval Air Station Whiting Field North

米尔顿, 佛罗里达州, 美国

纬度: 30-44-00N, 经度: 087-01-00W, 海拔: 60米

当前天气观测

该预报发布于31分钟前的17:56 UTC
静风
温度 31°C
湿度 59%
气压 1013 hPa
能見度: 16.1公里
天空无云

METAR: KNSE 041756Z AUTO 00000KT 10SM CLR 31/22 A2991 RMK AO2 TSB19E35 SLP112 T03060217 10311 20228 58008 $

时间: 13:27 (18:27 UTC)

预报

预报有效从04日的 15点(UTC)到 05日的 15点(UTC)
风速10节,风向
能见度10公里或以上
多云层高于1500英尺
多云层高于5000英尺
从 04日的 1730点(UTC)
风速6节,风向多变
能见度10公里或以上
散云层高于2500英尺, 积雨云.
多云层高于5000英尺
附近有雷暴
短暂存在
从 04日的 18点(UTC)到 05日的 00点(UTC)
风速15节,风向多变,有时为25节阵风
能見度: 4800
散云层高于1500英尺, 积雨云.
多云层高于3000英尺
阴天层高于8000英尺
雷暴, 雨
从 05日的 0100点(UTC)
风速6节,风向多变
能見度: 0610
散云层高于5000英尺
多云层高于25000英尺

TAF: KNSE 0415/0515 17010KT 9999 BKN015 BKN050 QNH2985INS FM041730 VRB06KT 9999 VCTS SCT025CB BKN050 QNH2980INS TEMPO 0418/0500 VRB15G25KT 4800 TSRA SCT015CB BKN030 OVC080 FM050100 VRB06KT 9999 SCT050 BKN250 QNH2982INS AUTOMATED SENSOR METWATCH 0415 TIL 0610 T29/0419Z T23/0511Z FN00205

超过4000个机场的气象观测和天气预报(METAR&TAF报告)。

可查询的气象台以黄色和红色小点在地图上表示。

将鼠标移到小点上方,可查看气象台名称。

然后点击查看天气观测和预报。

如需切换地图:点击带黑十字的绿色按钮放大地图;点击带横线的绿色按钮缩小地图;或者点击绿色箭头查看邻近地区的地图。


METAR-TAF: